Albany, Kentucky
Current Conditions -  °F | °C
As of 1:56 PM on Friday 21 Nov 2014 (Local Time) from KEKQ Reporting Station
Clear Clear  
Wind Chill: 47°   Ceiling: Unl
Heat Index: 47°   Visibility: 10mi
Dew Point: 15°   Wind: 0mph
Humidity: 28%   Direction: NA
Pressure: 30.44"   Gusts: NA
Location:  36.69°N, 85.13°W
Report Text: KEKQ 211956Z AUTO 00000KT 10SM CLR 08/M09 A3044 RMK AO2 T00831094 SLP320
Loading
Personal Weather Stations






























Interactive Weather Map New forecast layout! Learn more

10-Day Weather Forecast

Advertisements
Track Severe Weather on mobile